createdAt,value
2022-09-01T00:03:00.298Z,100281.28
2022-09-01T00:08:02.082Z,100288.13
2022-09-01T00:13:07.056Z,100293.16
2022-09-01T00:18:08.766Z,100294.53
2022-09-01T00:23:10.441Z,100283.22
2022-09-01T00:28:12.118Z,100287.59
2022-09-01T00:33:14.142Z,100286.78
2022-09-01T00:38:16.490Z,100289.63
2022-09-01T00:43:23.599Z,100283.28
2022-09-01T00:48:26.050Z,100278.50
2022-09-01T00:53:28.372Z,100276.28
2022-09-01T00:58:31.596Z,100283.09
2022-09-01T01:03:34.172Z,100271.78
2022-09-01T01:08:41.878Z,100278.91
2022-09-01T01:13:49.475Z,100277.69
2022-09-01T01:18:52.707Z,100273.28
2022-09-01T01:24:06.791Z,100273.53
2022-09-01T01:29:10.218Z,100280.59
2022-09-01T01:34:12.224Z,100280.41
2022-09-01T01:39:19.619Z,100283.44
2022-09-01T01:44:27.955Z,100278.53
2022-09-01T01:49:32.695Z,100279.91
2022-09-01T01:54:34.603Z,100276.50
2022-09-01T01:59:36.295Z,100279.03
2022-09-01T02:04:40.158Z,100268.41
2022-09-01T02:09:48.170Z,100279.56
2022-09-01T02:14:50.417Z,100282.78
2022-09-01T02:19:57.531Z,100277.06
2022-09-01T02:25:01.029Z,100275.16
2022-09-01T02:30:04.272Z,100278.91
2022-09-01T02:35:10.101Z,100282.28
2022-09-01T02:40:11.857Z,100275.84
2022-09-01T02:45:16.253Z,100269.47
2022-09-01T02:50:19.892Z,100258.19
2022-09-01T02:55:22.936Z,100255.81
2022-09-01T03:00:33.523Z,100252.97
2022-09-01T03:05:36.232Z,100248.28
2022-09-01T03:10:41.732Z,100247.59
2022-09-01T03:15:44.778Z,100250.28
2022-09-01T03:20:47.304Z,100249.28
2022-09-01T03:25:49.204Z,100255.50
2022-09-01T03:30:53.681Z,100247.25
2022-09-01T03:35:56.681Z,100256.34
2022-09-01T03:41:01.931Z,100260.38
2022-09-01T03:46:04.949Z,100255.66
2022-09-01T03:51:06.824Z,100257.88
2022-09-01T03:56:09.116Z,100265.28
2022-09-01T04:01:13.729Z,100271.47
2022-09-01T04:06:18.641Z,100271.97
2022-09-01T04:11:23.669Z,100269.75
2022-09-01T04:16:51.054Z,100279.69
2022-09-01T04:21:55.825Z,100259.97
2022-09-01T04:27:02.330Z,100270.31
2022-09-01T04:32:07.468Z,100263.53
2022-09-01T04:37:15.019Z,100269.13
2022-09-01T04:42:19.058Z,100265.34
2022-09-01T04:47:31.626Z,100265.31
2022-09-01T04:52:40.412Z,100270.38
2022-09-01T04:57:47.931Z,100272.56
2022-09-01T05:03:05.080Z,100277.00
2022-09-01T05:08:25.322Z,100273.22
2022-09-01T05:13:33.516Z,100274.31
2022-09-01T05:18:35.538Z,100284.13
2022-09-01T05:23:40.533Z,100276.91
2022-09-01T05:28:45.003Z,100279.38
2022-09-01T05:33:48.458Z,100290.59
2022-09-01T05:38:52.447Z,100285.44
2022-09-01T05:43:59.934Z,100293.03
2022-09-01T05:49:02.701Z,100294.28
2022-09-01T05:54:08.138Z,100289.41
2022-09-01T05:59:28.751Z,100284.94
2022-09-01T06:04:44.345Z,100284.44
2022-09-01T06:09:53.703Z,100285.63
2022-09-01T06:14:58.406Z,100284.16
2022-09-01T06:20:00.967Z,100289.56
2022-09-01T06:25:06.718Z,100290.91
2022-09-01T06:30:23.516Z,100290.97
2022-09-01T06:35:42.152Z,100282.38
2022-09-01T06:40:45.344Z,100290.84
2022-09-01T06:45:54.357Z,100301.88
2022-09-01T06:51:21.958Z,100302.56
2022-09-01T06:56:32.204Z,100305.25
2022-09-01T07:01:35.410Z,100296.41
2022-09-01T07:12:25.679Z,100309.22
2022-09-01T07:17:30.674Z,100300.59
2022-09-01T07:23:02.620Z,100303.31
2022-09-01T07:27:56.295Z,100300.78
2022-09-01T07:43:53.459Z,100305.25
2022-09-01T07:49:30.138Z,100305.31
2022-09-01T07:54:37.412Z,100311.13
2022-09-01T07:59:39.322Z,100310.94
2022-09-01T08:04:50.833Z,100301.94
2022-09-01T08:09:55.950Z,100305.63
2022-09-01T08:15:37.973Z,100304.75
2022-09-01T08:20:30.556Z,100303.25
2022-09-01T08:25:45.915Z,100311.97
2022-09-01T08:30:52.624Z,100309.38
2022-09-01T08:35:57.439Z,100305.38
2022-09-01T08:41:01.241Z,100302.69
2022-09-01T08:46:16.294Z,100306.22
2022-09-01T08:51:40.628Z,100302.69
2022-09-01T08:56:43.938Z,100296.34
2022-09-01T09:01:57.083Z,100290.97
2022-09-01T09:07:18.159Z,100285.53
2022-09-01T09:12:53.413Z,100294.97
2022-09-01T09:18:19.870Z,100289.28
2022-09-01T09:23:31.554Z,100280.56
2022-09-01T09:28:33.481Z,100281.13
2022-09-01T09:33:54.379Z,100280.31
2022-09-01T09:39:11.889Z,100275.50
2022-09-01T09:44:26.884Z,100274.91
2022-09-01T09:49:36.607Z,100286.56
2022-09-01T09:55:10.439Z,100280.03
2022-09-01T10:00:33.436Z,100273.41
2022-09-01T10:05:40.181Z,100268.41
2022-09-01T10:10:58.174Z,100272.19
2022-09-01T10:16:16.233Z,100268.44
2022-09-01T10:21:40.264Z,100276.09
2022-09-01T10:26:44.806Z,100272.56
2022-09-01T10:31:46.636Z,100266.38
2022-09-01T10:36:55.717Z,100265.44
2022-09-01T10:42:07.568Z,100258.22
2022-09-01T10:47:30.086Z,100271.06
2022-09-01T10:52:41.050Z,100262.88
2022-09-01T10:57:55.179Z,100262.59
2022-09-01T11:08:35.398Z,100254.06
2022-09-01T11:13:51.047Z,100254.16
2022-09-01T11:18:53.128Z,100247.38
2022-09-01T11:24:32.376Z,100250.03
2022-09-01T11:29:53.299Z,100241.50
2022-09-01T11:34:58.019Z,100235.84
2022-09-01T11:40:03.474Z,100239.06
2022-09-01T11:45:21.936Z,100232.41
2022-09-01T11:50:34.673Z,100227.22
2022-09-01T11:55:40.837Z,100214.41
2022-09-01T12:00:43.196Z,100220.59
2022-09-01T12:05:46.680Z,100223.53
2022-09-01T12:10:48.572Z,100214.97
2022-09-01T12:16:17.102Z,100210.28
2022-09-01T12:21:54.106Z,100209.50
2022-09-01T12:27:01.244Z,100208.88
2022-09-01T12:32:05.442Z,100207.09
2022-09-01T12:37:24.819Z,100208.63
2022-09-01T12:42:41.589Z,100217.22
2022-09-01T12:47:49.938Z,100211.88
2022-09-01T12:52:55.647Z,100217.44
2022-09-01T12:58:03.531Z,100209.09
2022-09-01T13:03:15.309Z,100213.13
2022-09-01T13:08:20.916Z,100207.72
2022-09-01T13:13:24.822Z,100201.38
2022-09-01T13:18:27.995Z,100198.06
2022-09-01T13:23:29.675Z,100188.25
2022-09-01T13:28:32.137Z,100188.44
2022-09-01T13:34:09.216Z,100177.47
2022-09-01T13:38:57.628Z,100177.81
2022-09-01T13:43:59.531Z,100181.25
2022-09-01T13:49:02.881Z,100182.41
2022-09-01T13:54:05.147Z,100184.72
2022-09-01T13:59:07.890Z,100172.81
2022-09-01T14:04:10.437Z,100182.66
2022-09-01T14:09:17.594Z,100178.69
2022-09-01T14:14:19.479Z,100165.03
2022-09-01T14:19:21.386Z,100172.94
2022-09-01T14:24:23.342Z,100172.38
2022-09-01T14:29:25.572Z,100168.97
2022-09-01T14:34:27.281Z,100177.13
2022-09-01T14:39:28.924Z,100170.06
2022-09-01T14:44:32.110Z,100182.19
2022-09-01T14:49:36.834Z,100168.38
2022-09-01T14:54:40.948Z,100173.53
2022-09-01T14:59:42.702Z,100173.88
2022-09-01T15:04:44.375Z,100167.66
2022-09-01T15:09:46.036Z,100169.22
2022-09-01T15:14:47.744Z,100175.25
2022-09-01T15:19:49.375Z,100173.28
2022-09-01T15:24:51.016Z,100175.31
2022-09-01T15:29:52.646Z,100171.88
2022-09-01T15:34:55.880Z,100175.34
2022-09-01T15:39:57.542Z,100175.75
2022-09-01T15:44:59.517Z,100171.84
2022-09-01T15:50:01.209Z,100170.78
2022-09-01T15:55:05.233Z,100168.94
2022-09-01T16:00:07.706Z,100166.22
2022-09-01T16:05:14.531Z,100165.16
2022-09-01T16:10:16.199Z,100165.75
2022-09-01T16:15:20.617Z,100162.19
2022-09-01T16:20:26.146Z,100169.00
2022-09-01T16:25:31.566Z,100172.75
2022-09-01T16:30:34.407Z,100167.22
2022-09-01T16:36:06.443Z,100168.69
2022-09-01T16:41:36.215Z,100172.97
2022-09-01T16:46:55.252Z,100170.63
2022-09-01T16:52:05.504Z,100176.94
2022-09-01T16:57:16.301Z,100176.16
2022-09-01T17:02:36.000Z,100176.78
2022-09-01T17:07:49.993Z,100173.69
2022-09-01T17:12:58.479Z,100172.66
2022-09-01T17:18:22.206Z,100179.41
2022-09-01T17:23:28.705Z,100177.16
2022-09-01T17:28:51.883Z,100180.53
2022-09-01T17:34:18.689Z,100193.03
2022-09-01T17:39:55.434Z,100193.97
2022-09-01T17:45:29.258Z,100192.97
2022-09-01T17:56:01.867Z,100204.50
2022-09-01T18:01:10.812Z,100214.22
2022-09-01T18:06:20.147Z,100208.75
2022-09-01T18:11:31.954Z,100214.91
2022-09-01T18:16:51.837Z,100213.56
2022-09-01T18:21:57.481Z,100217.50
2022-09-01T18:27:01.668Z,100214.81
2022-09-01T18:32:20.543Z,100219.75
2022-09-01T18:37:54.535Z,100219.44
2022-09-01T18:43:09.372Z,100227.41
2022-09-01T18:48:47.902Z,100237.19
2022-09-01T18:54:15.684Z,100227.63
2022-09-01T18:59:37.318Z,100240.06
2022-09-01T19:04:42.331Z,100227.19
2022-09-01T19:09:55.665Z,100231.41
2022-09-01T19:15:25.697Z,100231.84
2022-09-01T19:20:47.415Z,100239.72
2022-09-01T19:25:51.425Z,100237.59
2022-09-01T19:31:20.627Z,100246.91
2022-09-01T19:36:31.128Z,100236.66
2022-09-01T19:41:42.408Z,100236.75
2022-09-01T19:46:51.593Z,100243.84
2022-09-01T19:52:05.696Z,100240.03
2022-09-01T19:57:45.551Z,100245.75
2022-09-01T20:03:01.098Z,100253.13
2022-09-01T20:08:09.003Z,100256.38
2022-09-01T20:13:43.878Z,100249.78
2022-09-01T20:19:21.044Z,100258.06
2022-09-01T20:24:38.305Z,100264.22
2022-09-01T20:29:55.776Z,100262.94
2022-09-01T20:35:12.520Z,100263.56
2022-09-01T20:40:24.579Z,100263.28
2022-09-01T20:45:28.633Z,100256.09
2022-09-01T20:51:07.786Z,100265.38
2022-09-01T20:56:13.808Z,100260.34
2022-09-01T21:01:36.179Z,100259.69
2022-09-01T21:07:03.826Z,100272.69
2022-09-01T21:12:28.695Z,100273.94
2022-09-01T21:18:04.371Z,100272.59
2022-09-01T21:23:06.635Z,100273.78
2022-09-01T21:28:08.573Z,100267.75
2022-09-01T21:33:10.465Z,100260.81
2022-09-01T21:38:12.229Z,100256.94
2022-09-01T21:43:28.352Z,100268.13
2022-09-01T21:48:30.999Z,100256.50
2022-09-01T21:53:33.142Z,100259.69
2022-09-01T21:58:38.011Z,100271.31
2022-09-01T22:03:39.651Z,100260.56
2022-09-01T22:08:41.892Z,100262.91
2022-09-01T22:13:43.623Z,100252.66
2022-09-01T22:18:45.481Z,100256.03
2022-09-01T22:23:47.325Z,100258.50
2022-09-01T22:28:49.839Z,100249.94
2022-09-01T22:33:51.845Z,100255.50
2022-09-01T22:38:54.068Z,100249.09
2022-09-01T22:43:56.994Z,100259.84
2022-09-01T22:49:00.000Z,100257.44
2022-09-01T22:54:01.694Z,100252.75
2022-09-01T22:59:08.072Z,100254.94
2022-09-01T23:04:12.569Z,100259.59
2022-09-01T23:09:14.723Z,100258.84
2022-09-01T23:14:18.558Z,100254.28
2022-09-01T23:19:21.778Z,100254.72
2022-09-01T23:24:23.588Z,100246.94
2022-09-01T23:29:25.505Z,100247.50
2022-09-01T23:34:27.181Z,100250.00
2022-09-01T23:39:28.944Z,100254.06
2022-09-01T23:44:31.022Z,100246.63
2022-09-01T23:49:32.714Z,100251.28
2022-09-01T23:54:35.000Z,100246.25
2022-09-01T23:59:36.630Z,100242.59
